Time;durP1;ratioP1;P1;durP2;ratioP2;P2;SDS_P1;SDS_P2;PMS_P1;PMS_P2;Temp;Humidity;BMP_temperature;BMP_pressure;BME280_temperature;BME280_humidity;BME280_pressure;Samples;Min_cycle;Max_cycle;Signal;HPM_P1;HPM_P2
2021/12/13 00:00:10;;;;;;;4.17;2.80;;;;;;;1.97;100.00;97329.22;5053907;28;20221;-81
2021/12/13 00:02:46;;;;;;;3.23;2.60;;;;;;;1.97;100.00;97323.91;5054029;28;20236;-81
2021/12/13 00:05:17;;;;;;;5.37;3.10;;;;;;;2.01;100.00;97330.59;5051142;28;20230;-81
2021/12/13 00:07:52;;;;;;;4.53;2.50;;;;;;;1.99;100.00;97331.75;5048499;28;20213;-82
2021/12/13 00:10:22;;;;;;;2.97;2.40;;;;;;;1.98;100.00;97325.56;5049229;28;20266;-81
2021/12/13 00:12:57;;;;;;;4.07;2.77;;;;;;;1.98;100.00;97335.41;5053982;28;20210;-81
2021/12/13 00:15:30;;;;;;;4.00;2.67;;;;;;;1.96;100.00;97332.06;5057552;28;20197;-81
2021/12/13 00:17:58;;;;;;;3.70;2.50;;;;;;;1.99;100.00;97329.06;5066270;28;20295;-82
2021/12/13 00:20:35;;;;;;;3.50;2.50;;;;;;;1.98;100.00;97330.91;5055376;28;20225;-81
2021/12/13 00:23:10;;;;;;;2.33;2.10;;;;;;;1.93;100.00;97322.53;5051416;28;20305;-81
2021/12/13 00:25:41;;;;;;;4.13;3.27;;;;;;;1.98;100.00;97328.25;5057416;28;20212;-81
2021/12/13 00:28:13;;;;;;;3.97;2.40;;;;;;;2.01;100.00;97325.28;5054483;28;20210;-81
2021/12/13 00:30:54;;;;;;;3.37;2.50;;;;;;;2.02;100.00;97324.28;5054395;28;20217;-81
2021/12/13 00:33:36;;;;;;;2.97;2.10;;;;;;;2.03;100.00;97323.31;5051108;28;20272;-81
2021/12/13 00:36:09;;;;;;;2.53;2.17;;;;;;;2.08;100.00;97318.34;5056201;28;20227;-81
2021/12/13 00:38:42;;;;;;;2.70;2.30;;;;;;;2.14;100.00;97319.53;5060487;28;20244;-81
2021/12/13 00:41:14;;;;;;;3.67;2.50;;;;;;;2.15;100.00;97316.72;5054839;28;20256;-81
2021/12/13 00:43:49;;;;;;;2.70;2.00;;;;;;;2.17;100.00;97328.06;5054495;28;20201;-81
2021/12/13 00:46:19;;;;;;;2.80;2.23;;;;;;;2.19;100.00;97328.78;5064502;28;20197;-81
2021/12/13 00:48:51;;;;;;;3.20;2.30;;;;;;;2.24;100.00;97323.81;5054680;28;20210;-81
2021/12/13 00:51:25;;;;;;;2.40;1.90;;;;;;;2.28;100.00;97327.00;5057505;28;20465;-81
2021/12/13 00:53:55;;;;;;;2.93;2.07;;;;;;;2.31;100.00;97326.69;5052954;28;20211;-82
2021/12/13 00:56:49;;;;;;;1.90;1.70;;;;;;;2.31;100.00;97326.69;5051128;28;20198;-81
2021/12/13 00:59:25;;;;;;;2.50;1.90;;;;;;;2.33;100.00;97323.88;5055703;28;20304;-81
2021/12/13 01:01:58;;;;;;;3.43;2.10;;;;;;;2.30;100.00;97319.66;5058263;28;20220;-81
2021/12/13 01:04:48;;;;;;;3.10;1.93;;;;;;;2.30;100.00;97317.00;5064556;28;20208;-80
2021/12/13 01:08:03;;;;;;;3.10;2.07;;;;;;;2.31;100.00;97325.84;5055370;28;20202;-81
2021/12/13 01:11:14;;;;;;;2.70;2.10;;;;;;;2.32;100.00;97327.50;5054230;28;20233;-82
2021/12/13 01:14:02;;;;;;;2.90;2.00;;;;;;;2.34;100.00;97315.72;5048412;28;20313;-82
2021/12/13 01:16:50;;;;;;;2.17;1.87;;;;;;;2.39;100.00;97320.56;5058771;28;20300;-81
2021/12/13 01:19:30;;;;;;;2.60;2.03;;;;;;;2.42;100.00;97317.59;5056373;28;20309;-81
2021/12/13 01:22:25;;;;;;;2.87;2.20;;;;;;;2.41;100.00;97316.75;5050629;28;20233;-81
2021/12/13 01:25:16;;;;;;;2.03;1.63;;;;;;;2.39;100.00;97323.22;5048839;28;20334;-82
2021/12/13 01:27:47;;;;;;;6.23;2.13;;;;;;;2.38;100.00;97316.25;5050389;28;20201;-81
2021/12/13 01:30:17;;;;;;;2.30;1.90;;;;;;;2.39;100.00;97323.22;5061361;28;20205;-81
2021/12/13 01:32:50;;;;;;;2.70;1.90;;;;;;;2.39;100.00;97316.06;5056704;28;20197;-82
2021/12/13 01:35:21;;;;;;;1.87;1.60;;;;;;;2.44;100.00;97323.63;5058980;28;20200;-81
2021/12/13 01:37:52;;;;;;;1.87;1.77;;;;;;;2.46;100.00;97319.81;5049999;28;20201;-81
2021/12/13 01:40:25;;;;;;;2.63;1.90;;;;;;;2.45;100.00;97322.63;5048950;28;20245;-81
2021/12/13 01:43:03;;;;;;;2.40;2.00;;;;;;;2.38;100.00;97317.09;5062229;28;20224;-81
2021/12/13 01:45:34;;;;;;;3.10;1.90;;;;;;;2.37;100.00;97326.06;5054903;28;20233;-82
2021/12/13 01:48:01;;;;;;;3.10;1.80;;;;;;;2.28;100.00;97321.69;5061858;28;20194;-81
2021/12/13 01:50:42;;;;;;;3.43;1.93;;;;;;;2.26;100.00;97324.50;5070965;28;20197;-81
2021/12/13 01:53:09;;;;;;;2.47;1.90;;;;;;;2.25;100.00;97328.16;5053251;28;20198;-81
2021/12/13 01:55:44;;;;;;;2.40;1.90;;;;;;;2.25;100.00;97321.97;5053928;28;20217;-81
2021/12/13 01:58:36;;;;;;;2.17;1.73;;;;;;;2.23;100.00;97321.28;5052840;28;20228;-81
2021/12/13 02:01:11;;;;;;;4.40;1.80;;;;;;;2.19;100.00;97323.44;5057720;28;20256;-80
2021/12/13 02:03:52;;;;;;;2.30;1.67;;;;;;;2.17;100.00;97319.25;5058366;28;20205;-82
2021/12/13 02:06:30;;;;;;;1.70;1.33;;;;;;;2.08;100.00;97321.00;5058394;28;20249;-82
2021/12/13 02:09:00;;;;;;;2.10;1.37;;;;;;;2.03;100.00;97317.97;5056512;28;20220;-81
2021/12/13 02:11:30;;;;;;;4.77;1.50;;;;;;;1.95;100.00;97312.59;5055641;28;20295;-82
2021/12/13 02:14:10;;;;;;;1.50;1.20;;;;;;;1.97;100.00;97318.56;5054022;28;20225;-81
2021/12/13 02:17:01;;;;;;;2.57;1.20;;;;;;;1.94;100.00;97320.72;5064294;28;20233;-83
2021/12/13 02:19:38;;;;;;;1.30;1.10;;;;;;;1.86;100.00;97317.00;5064900;28;20214;-81
2021/12/13 02:22:11;;;;;;;1.53;1.40;;;;;;;1.86;100.00;97316.16;5060420;28;20224;-82
2021/12/13 02:24:40;;;;;;;1.40;1.30;;;;;;;1.87;100.00;97323.97;5062724;28;20198;-81
2021/12/13 02:27:07;;;;;;;1.47;1.17;;;;;;;1.87;100.00;97320.50;5066525;28;20210;-81
2021/12/13 02:29:38;;;;;;;1.60;1.10;;;;;;;1.83;100.00;97319.97;5059996;28;20244;-81
2021/12/13 02:32:09;;;;;;;1.03;0.93;;;;;;;1.84;100.00;97318.13;5059623;28;20217;-81
2021/12/13 02:34:41;;;;;;;0.77;0.77;;;;;;;1.82;100.00;97320.09;5058043;28;20190;-81
2021/12/13 02:37:10;;;;;;;2.80;0.90;;;;;;;1.81;100.00;97318.44;5054381;28;20210;-82
2021/12/13 02:39:44;;;;;;;2.47;1.00;;;;;;;1.71;100.00;97313.16;5061232;28;20200;-81
2021/12/13 02:42:16;;;;;;;1.03;0.97;;;;;;;1.66;100.00;97306.63;5050701;28;20249;-82
2021/12/13 02:44:48;;;;;;;1.10;1.00;;;;;;;1.60;100.00;97304.59;5058543;28;20216;-82
2021/12/13 02:47:21;;;;;;;1.23;1.10;;;;;;;1.56;100.00;97313.84;5055105;28;20212;-82
2021/12/13 02:49:48;;;;;;;1.63;1.10;;;;;;;1.52;100.00;97308.84;5065671;28;20207;-80
2021/12/13 02:52:18;;;;;;;1.10;1.00;;;;;;;1.51;100.00;97312.50;5065557;28;20209;-81
2021/12/13 02:54:52;;;;;;;2.00;1.20;;;;;;;1.53;100.00;97315.81;5061612;28;20257;-81
2021/12/13 02:57:22;;;;;;;1.73;1.20;;;;;;;1.53;100.00;97323.00;5058755;28;20201;-81
2021/12/13 02:59:54;;;;;;;1.87;1.27;;;;;;;1.53;100.00;97318.47;5075341;28;20296;-82
2021/12/13 03:02:25;;;;;;;1.10;1.00;;;;;;;1.55;100.00;97305.03;5055661;28;20218;-81
2021/12/13 03:04:52;;;;;;;0.80;0.80;;;;;;;1.59;100.00;97302.91;5072128;28;20274;-81
2021/12/13 03:07:25;;;;;;;1.10;1.00;;;;;;;1.61;100.00;97304.44;5063406;28;20202;-81
2021/12/13 03:09:56;;;;;;;1.47;1.10;;;;;;;1.54;100.00;97290.03;5066526;28;20311;-82
2021/12/13 03:12:26;;;;;;;1.60;1.20;;;;;;;1.48;100.00;97280.84;5062410;28;20223;-82
2021/12/13 03:14:56;;;;;;;1.60;1.23;;;;;;;1.43;100.00;97284.94;5067766;28;20223;-82
2021/12/13 03:17:29;;;;;;;2.77;1.47;;;;;;;1.39;100.00;97281.75;5061807;28;20215;-81
2021/12/13 03:20:21;;;;;;;1.80;1.60;;;;;;;1.39;100.00;97271.09;5054801;28;20209;-81
2021/12/13 03:23:14;;;;;;;2.23;1.63;;;;;;;1.38;100.00;97261.44;5063595;28;20232;-82
2021/12/13 03:26:03;;;;;;;2.13;1.30;;;;;;;1.38;100.00;97263.25;5055428;28;20302;-81
2021/12/13 03:28:46;;;;;;;1.53;1.20;;;;;;;1.39;100.00;97262.28;5062293;28;20203;-81
2021/12/13 03:31:22;;;;;;;1.57;1.20;;;;;;;1.39;100.00;97251.63;5057169;28;20292;-82
2021/12/13 03:33:57;;;;;;;2.77;1.40;;;;;;;1.39;100.00;97254.28;5055652;28;20215;-82
2021/12/13 03:36:37;;;;;;;4.57;1.60;;;;;;;1.37;100.00;97249.13;5059541;28;20205;-81
2021/12/13 03:39:07;;;;;;;1.60;1.20;;;;;;;1.33;100.00;97249.59;5065686;28;20236;-82
2021/12/13 03:41:40;;;;;;;1.87;1.40;;;;;;;1.28;100.00;97242.03;5062965;28;20250;-81
2021/12/13 03:44:10;;;;;;;1.30;1.20;;;;;;;1.29;100.00;97232.22;5058754;28;20351;-81
2021/12/13 03:46:38;;;;;;;1.70;1.30;;;;;;;1.28;100.00;97230.56;5053870;28;20197;-81
2021/12/13 03:49:09;;;;;;;1.33;1.23;;;;;;;1.30;100.00;97229.44;5077949;28;20289;-81
2021/12/13 03:51:41;;;;;;;1.53;1.10;;;;;;;1.28;100.00;97225.22;5054115;28;20308;-81
2021/12/13 03:54:12;;;;;;;1.13;1.03;;;;;;;1.33;100.00;97223.81;5074261;28;20303;-82
2021/12/13 03:56:45;;;;;;;1.20;1.10;;;;;;;1.34;100.00;97224.66;5058022;28;20212;-81
2021/12/13 03:59:16;;;;;;;2.00;1.20;;;;;;;1.35;100.00;97229.84;5059610;28;20307;-81
2021/12/13 04:01:47;;;;;;;1.00;0.90;;;;;;;1.35;100.00;97244.97;5072286;28;20221;-80
2021/12/13 04:04:20;;;;;;;5.13;2.93;;;;;;;1.34;100.00;97241.47;5053174;28;20296;-81
2021/12/13 04:06:51;;;;;;;3.53;2.20;;;;;;;1.29;100.00;97240.22;5064821;28;20320;-80
2021/12/13 04:09:19;;;;;;;3.93;2.20;;;;;;;1.27;100.00;97232.41;5075376;28;20204;-82
2021/12/13 04:11:49;;;;;;;2.77;2.23;;;;;;;1.22;100.00;97224.03;5060190;28;20292;-80
2021/12/13 04:14:24;;;;;;;3.43;2.10;;;;;;;1.19;100.00;97227.00;5065149;28;20301;-81
2021/12/13 04:17:06;;;;;;;3.07;1.80;;;;;;;1.22;100.00;97226.69;5061691;28;20193;-81
2021/12/13 04:19:46;;;;;;;3.60;2.20;;;;;;;1.24;100.00;97230.03;5086686;28;20208;-82
2021/12/13 04:22:15;;;;;;;2.60;2.00;;;;;;;1.18;100.00;97228.00;5057027;28;20224;-81
2021/12/13 04:24:45;;;;;;;3.23;1.97;;;;;;;1.19;100.00;97226.16;5058531;28;20250;-81
2021/12/13 04:27:22;;;;;;;2.00;1.80;;;;;;;1.19;100.00;97232.31;5062114;28;20312;-82
2021/12/13 04:29:51;;;;;;;2.83;1.77;;;;;;;1.20;100.00;97233.97;5060859;28;20254;-81
2021/12/13 04:32:22;;;;;;;12.47;6.97;;;;;;;1.19;100.00;97242.97;5053899;28;20212;-81
2021/12/13 04:34:52;;;;;;;2.43;1.97;;;;;;;1.16;100.00;97237.94;5061694;28;20265;-81
2021/12/13 04:37:22;;;;;;;2.23;1.80;;;;;;;1.09;100.00;97239.53;5059587;28;20302;-80
2021/12/13 04:39:54;;;;;;;4.33;3.40;;;;;;;1.02;100.00;97246.44;5062490;28;20197;-81
2021/12/13 04:42:24;;;;;;;3.67;2.73;;;;;;;1.04;100.00;97263.06;5056547;28;20236;-82
2021/12/13 04:44:57;;;;;;;6.77;4.00;;;;;;;0.99;100.00;97260.88;5072171;28;20659;-82
2021/12/13 04:47:30;;;;;;;6.30;3.80;;;;;;;0.99;100.00;97268.00;5057448;28;20239;-81
2021/12/13 04:50:04;;;;;;;7.20;4.27;;;;;;;0.95;100.00;97274.59;5061058;28;20211;-81
2021/12/13 04:52:34;;;;;;;6.60;4.10;;;;;;;0.89;100.00;97277.84;5070730;28;20208;-82
2021/12/13 04:55:06;;;;;;;12.80;8.13;;;;;;;0.87;100.00;97279.81;5068670;28;20199;-81
2021/12/13 04:57:34;;;;;;;4.77;3.50;;;;;;;0.86;100.00;97278.97;5057806;28;20210;-82
2021/12/13 05:00:07;;;;;;;8.47;5.37;;;;;;;0.82;100.00;97282.91;5061259;28;20226;-83
2021/12/13 05:02:35;;;;;;;5.43;3.90;;;;;;;0.80;100.00;97286.69;5055353;28;20223;-81
2021/12/13 05:05:05;;;;;;;6.83;4.13;;;;;;;0.75;100.00;97277.34;5064201;28;20209;-82
2021/12/13 05:07:34;;;;;;;10.73;4.33;;;;;;;0.75;100.00;97285.34;5055002;28;20208;-81
2021/12/13 05:10:03;;;;;;;7.03;4.40;;;;;;;0.72;100.00;97284.78;5082760;28;20213;-81
2021/12/13 05:12:30;;;;;;;8.40;5.00;;;;;;;0.75;100.00;97285.34;5062581;28;20256;-80
2021/12/13 05:15:03;;;;;;;5.40;3.70;;;;;;;0.74;100.00;97288.97;5056600;28;20201;-81
2021/12/13 05:17:37;;;;;;;6.33;3.87;;;;;;;0.79;100.00;97296.50;5078176;28;20211;-82
2021/12/13 05:20:13;;;;;;;5.80;3.60;;;;;;;0.80;100.00;97297.34;5057846;28;20295;-81
2021/12/13 05:22:49;;;;;;;5.47;3.27;;;;;;;0.80;100.00;97310.63;5050364;28;20221;-81
2021/12/13 05:25:28;;;;;;;6.43;3.27;;;;;;;0.84;100.00;97318.19;5055916;28;20287;-81
2021/12/13 05:28:03;;;;;;;5.30;2.87;;;;;;;0.87;100.00;97309.06;5057290;28;20218;-81
2021/12/13 05:30:34;;;;;;;3.53;2.83;;;;;;;0.90;100.00;97312.28;5056069;28;20303;-81
2021/12/13 05:33:05;;;;;;;4.47;2.83;;;;;;;0.94;100.00;97320.78;5052618;28;20241;-81
2021/12/13 05:35:36;;;;;;;4.60;3.10;;;;;;;0.90;100.00;97327.38;5055125;28;20205;-81
2021/12/13 05:38:06;;;;;;;5.40;2.67;;;;;;;0.90;100.00;97324.72;5082463;28;20202;-81
2021/12/13 05:40:38;;;;;;;4.37;2.77;;;;;;;0.89;100.00;97334.53;5074213;28;20226;-81
2021/12/13 05:43:18;;;;;;;4.40;3.13;;;;;;;0.88;100.00;97326.69;5065734;28;20217;-81
2021/12/13 05:45:52;;;;;;;3.23;2.53;;;;;;;0.83;100.00;97320.97;5059253;28;20246;-81
2021/12/13 05:48:22;;;;;;;4.43;3.00;;;;;;;0.82;100.00;97330.78;5062691;28;20211;-81
2021/12/13 05:50:53;;;;;;;3.60;2.80;;;;;;;0.85;100.00;97340.28;5067105;28;20209;-81
2021/12/13 05:53:24;;;;;;;2.93;2.47;;;;;;;0.82;100.00;97335.25;5065644;28;20197;-81
2021/12/13 05:55:56;;;;;;;3.27;2.60;;;;;;;0.80;100.00;97338.06;5071201;28;20260;-81
2021/12/13 05:58:37;;;;;;;3.53;2.57;;;;;;;0.82;100.00;97330.78;5059664;28;20209;-81
2021/12/13 06:01:12;;;;;;;3.57;2.53;;;;;;;0.77;100.00;97326.88;5061075;28;20197;-82
2021/12/13 06:03:43;;;;;;;3.73;2.67;;;;;;;0.80;100.00;97338.06;5067951;28;20222;-81
2021/12/13 06:06:12;;;;;;;4.00;2.87;;;;;;;0.78;100.00;97337.34;5074078;28;20298;-81
2021/12/13 06:08:44;;;;;;;5.13;3.30;;;;;;;0.80;100.00;97348.69;5069694;28;20221;-81
2021/12/13 06:11:15;;;;;;;4.13;3.00;;;;;;;0.81;100.00;97338.88;5069560;28;20288;-80
2021/12/13 06:13:59;;;;;;;4.87;2.97;;;;;;;0.82;100.00;97340.56;5079319;28;20279;-81
2021/12/13 06:16:39;;;;;;;5.33;3.60;;;;;;;0.89;100.00;97353.13;5063460;28;20226;-81
2021/12/13 06:19:11;;;;;;;6.30;3.90;;;;;;;0.99;100.00;97347.78;5073206;28;20202;-80
2021/12/13 06:21:52;;;;;;;5.93;4.07;;;;;;;1.00;100.00;97346.81;5067344;28;20265;-80
2021/12/13 06:24:29;;;;;;;5.17;3.67;;;;;;;1.01;100.00;97351.97;5060029;28;20207;-80
2021/12/13 06:27:19;;;;;;;6.93;4.50;;;;;;;1.04;100.00;97350.81;5060527;28;20209;-81
2021/12/13 06:30:03;;;;;;;6.57;4.07;;;;;;;1.06;100.00;97346.22;5052128;28;20210;-80
2021/12/13 06:32:36;;;;;;;5.10;3.70;;;;;;;1.07;100.00;97340.75;5058249;28;20213;-81
2021/12/13 06:35:35;;;;;;;6.30;3.60;;;;;;;1.08;100.00;97352.22;5065848;28;20216;-80
2021/12/13 06:38:33;;;;;;;5.57;3.80;;;;;;;1.04;100.00;97349.00;5066662;28;20580;-80
2021/12/13 06:41:05;;;;;;;4.53;3.47;;;;;;;1.03;100.00;97349.16;5066368;28;20211;-80
2021/12/13 06:43:34;;;;;;;4.93;3.50;;;;;;;1.02;100.00;97345.66;5069854;28;20259;-80
2021/12/13 06:46:05;;;;;;;4.93;3.67;;;;;;;1.02;100.00;97340.34;5061587;28;20238;-80
2021/12/13 06:48:44;;;;;;;6.90;3.87;;;;;;;0.99;100.00;97342.47;5071086;28;20202;-81
2021/12/13 06:51:14;;;;;;;4.77;3.53;;;;;;;1.02;100.00;97339.53;5063525;28;20305;-79
2021/12/13 06:53:41;;;;;;;4.47;3.40;;;;;;;1.04;100.00;97342.84;5065510;28;20206;-80
2021/12/13 06:56:22;;;;;;;6.97;3.90;;;;;;;1.03;100.00;97333.19;5061152;28;20351;-80
2021/12/13 06:58:51;;;;;;;6.33;4.20;;;;;;;1.02;100.00;97328.88;5065682;28;20253;-80
2021/12/13 07:01:19;;;;;;;5.67;3.93;;;;;;;0.99;100.00;97321.19;5061385;28;20351;-79
2021/12/13 07:03:57;;;;;;;5.70;3.93;;;;;;;1.01;100.00;97322.72;5062055;28;20226;-80
2021/12/13 07:06:25;;;;;;;4.77;3.70;;;;;;;1.02;100.00;97332.34;5060411;28;20328;-80
2021/12/13 07:09:08;;;;;;;4.83;3.47;;;;;;;1.00;100.00;97329.03;5058712;28;20265;-80
2021/12/13 07:11:50;;;;;;;6.80;3.53;;;;;;;0.99;100.00;97337.16;5067652;28;20204;-79
2021/12/13 07:14:20;;;;;;;8.67;5.00;;;;;;;1.00;100.00;97336.16;5069284;28;20313;-79
2021/12/13 07:16:51;;;;;;;4.73;3.60;;;;;;;0.96;100.00;97335.59;5071578;28;20253;-80
2021/12/13 07:19:23;;;;;;;5.83;4.10;;;;;;;0.98;100.00;97338.13;5057738;28;20238;-79
2021/12/13 07:21:56;;;;;;;7.37;4.00;;;;;;;0.98;100.00;97341.63;5059566;28;20235;-80
2021/12/13 07:24:33;;;;;;;4.57;3.23;;;;;;;0.93;100.00;97335.09;5053299;28;20220;-79
2021/12/13 07:27:06;;;;;;;4.33;3.07;;;;;;;0.93;100.00;97343.91;5073804;28;20225;-80
2021/12/13 07:29:40;;;;;;;6.07;3.33;;;;;;;0.93;100.00;97343.06;5063739;28;20243;-79
2021/12/13 07:32:13;;;;;;;6.93;4.63;;;;;;;0.87;100.00;97341.78;5060171;28;20211;-81
2021/12/13 07:35:01;;;;;;;7.27;5.30;;;;;;;0.81;100.00;97349.53;5062808;28;20252;-81
2021/12/13 07:37:39;;;;;;;9.23;5.90;;;;;;;0.73;100.00;97348.44;5055055;28;20213;-80
2021/12/13 07:40:31;;;;;;;6.80;4.97;;;;;;;0.73;100.00;97348.44;5058214;28;20207;-80
2021/12/13 07:43:03;;;;;;;12.93;7.30;;;;;;;0.70;100.00;97354.03;5061098;28;20231;-80
2021/12/13 07:45:35;;;;;;;14.17;7.60;;;;;;;0.69;100.00;97346.19;5065532;28;20232;-79
2021/12/13 07:48:07;;;;;;;11.93;7.77;;;;;;;0.69;100.00;97354.16;5064441;28;20235;-81
2021/12/13 07:50:38;;;;;;;16.37;9.17;;;;;;;0.68;100.00;97363.97;5077507;28;20294;-80
2021/12/13 07:53:09;;;;;;;14.10;9.33;;;;;;;0.67;100.00;97358.81;5071713;28;20210;-80
2021/12/13 07:55:45;;;;;;;10.33;7.17;;;;;;;0.69;100.00;97372.78;5073461;28;20222;-80
2021/12/13 07:58:18;;;;;;;41.37;19.90;;;;;;;0.67;100.00;97372.94;5059956;28;20214;-80
2021/12/13 08:00:46;;;;;;;12.93;7.27;;;;;;;0.71;100.00;97376.13;5058157;28;20208;-79
2021/12/13 08:03:16;;;;;;;15.90;9.80;;;;;;;0.67;100.00;97364.97;5046183;28;20224;-80
2021/12/13 08:05:50;;;;;;;17.73;9.83;;;;;;;0.64;100.00;97373.22;5061168;28;20254;-80
2021/12/13 08:08:20;;;;;;;9.87;6.40;;;;;;;0.71;100.00;97376.13;5062448;28;20361;-80
2021/12/13 08:10:49;;;;;;;9.37;6.20;;;;;;;0.71;100.00;97374.31;5063910;28;20204;-80
2021/12/13 08:13:19;;;;;;;8.20;5.47;;;;;;;0.77;100.00;97384.38;5060181;28;20303;-80
2021/12/13 08:15:49;;;;;;;6.57;5.07;;;;;;;0.79;100.00;97375.41;5061544;28;20206;-79
2021/12/13 08:18:25;;;;;;;9.17;6.10;;;;;;;0.80;100.00;97385.06;5064997;28;20291;-80
2021/12/13 08:20:56;;;;;;;8.97;6.47;;;;;;;0.80;100.00;97383.25;5058293;28;20216;-80
2021/12/13 08:23:26;;;;;;;8.33;5.87;;;;;;;0.83;100.00;97379.47;5064751;28;20307;-80
2021/12/13 08:25:57;;;;;;;11.63;6.93;;;;;;;0.83;100.00;97384.78;5060993;28;20209;-80
2021/12/13 08:28:36;;;;;;;9.70;6.60;;;;;;;0.83;100.00;97385.63;5060724;28;20210;-80
2021/12/13 08:31:06;;;;;;;9.87;6.97;;;;;;;0.86;100.00;97389.78;5072900;28;20280;-80
2021/12/13 08:33:37;;;;;;;10.63;7.07;;;;;;;0.88;100.00;97387.84;5058210;28;20201;-80
2021/12/13 08:36:09;;;;;;;9.70;6.23;;;;;;;0.97;100.00;97386.97;5054919;28;20205;-79
2021/12/13 08:38:42;;;;;;;10.07;7.00;;;;;;;0.95;100.00;97383.63;5063627;28;20288;-80
2021/12/13 08:41:26;;;;;;;9.23;6.70;;;;;;;0.93;100.00;97390.91;5061845;28;20210;-80
2021/12/13 08:43:57;;;;;;;9.70;6.33;;;;;;;0.91;100.00;97392.88;5057652;28;20233;-80
2021/12/13 08:46:35;;;;;;;13.23;6.57;;;;;;;0.96;100.00;97399.44;5058757;28;20256;-81
2021/12/13 08:49:15;;;;;;;8.23;5.33;;;;;;;1.02;100.00;97400.69;5058245;28;20213;-80
2021/12/13 08:52:02;;;;;;;9.53;6.00;;;;;;;1.07;100.00;97393.94;5084086;28;20194;-79
2021/12/13 08:54:44;;;;;;;11.77;5.97;;;;;;;1.18;100.00;97395.59;5059690;28;20308;-80
2021/12/13 08:57:29;;;;;;;8.93;6.20;;;;;;;1.23;100.00;97392.47;5053057;28;20300;-80
2021/12/13 08:59:57;;;;;;;9.70;6.30;;;;;;;1.38;100.00;97391.00;5061805;28;20215;-81
2021/12/13 09:02:29;;;;;;;8.63;5.80;;;;;;;1.46;100.00;97397.25;5058722;28;20201;-81
2021/12/13 09:05:00;;;;;;;8.80;6.53;;;;;;;1.52;100.00;97391.38;5059519;28;20208;-80
2021/12/13 09:07:29;;;;;;;8.13;5.83;;;;;;;1.64;100.00;97407.09;5082667;28;20204;-80
2021/12/13 09:09:57;;;;;;;11.13;6.10;;;;;;;1.75;100.00;97396.25;5062154;28;20226;-80
2021/12/13 09:12:34;;;;;;;9.10;6.47;;;;;;;1.81;100.00;97400.97;5066255;28;20234;-80
2021/12/13 09:15:03;;;;;;;9.20;5.40;;;;;;;1.86;100.00;97402.22;5053821;28;20226;-80
2021/12/13 09:17:37;;;;;;;8.07;5.70;;;;;;;1.94;100.00;97398.81;5057344;28;20238;-80
2021/12/13 09:20:12;;;;;;;8.40;6.00;;;;;;;1.98;100.00;97394.84;5057201;28;20210;-80
2021/12/13 09:22:44;;;;;;;9.30;6.80;;;;;;;2.03;100.00;97407.72;5058059;28;20535;-81
2021/12/13 09:25:15;;;;;;;7.67;6.10;;;;;;;2.06;100.00;97408.22;5059769;28;20210;-80
2021/12/13 09:27:52;;;;;;;8.90;6.17;;;;;;;2.13;100.00;97413.78;5070240;28;20295;-81
2021/12/13 09:30:27;;;;;;;9.03;5.97;;;;;;;2.19;100.00;97414.03;5060916;28;20218;-81
2021/12/13 09:32:58;;;;;;;8.20;5.90;;;;;;;2.26;100.00;97409.78;5052922;28;20233;-81
2021/12/13 09:35:31;;;;;;;9.10;6.53;;;;;;;2.30;100.00;97401.47;5058109;28;20240;-80
2021/12/13 09:38:04;;;;;;;10.27;7.03;;;;;;;2.30;100.00;97409.47;5056674;28;20214;-81
2021/12/13 09:40:37;;;;;;;10.30;7.10;;;;;;;2.28;100.00;97401.63;5062533;28;20231;-80
2021/12/13 09:43:07;;;;;;;11.57;7.73;;;;;;;2.39;100.00;97400.53;5072179;28;20235;-80
2021/12/13 09:45:39;;;;;;;12.70;8.10;;;;;;;2.46;100.00;97401.63;5059330;28;20213;-80
2021/12/13 09:48:19;;;;;;;10.47;6.70;;;;;;;2.52;100.00;97388.50;5055416;28;20205;-80
2021/12/13 09:50:48;;;;;;;9.40;6.60;;;;;;;2.61;100.00;97392.06;5067744;28;20205;-79
2021/12/13 09:53:17;;;;;;;10.07;7.43;;;;;;;2.69;100.00;97397.47;5057465;28;20197;-80
2021/12/13 09:55:50;;;;;;;9.10;6.77;;;;;;;2.75;100.00;97398.66;5064157;28;20201;-80
2021/12/13 09:58:19;;;;;;;10.13;7.17;;;;;;;2.77;100.00;97383.34;5061173;28;20212;-80
2021/12/13 10:00:52;;;;;;;11.10;7.63;;;;;;;2.86;100.00;97385.06;5055522;28;20261;-81
2021/12/13 10:03:25;;;;;;;11.87;7.67;;;;;;;2.93;100.00;97381.63;5057200;28;20308;-82
2021/12/13 10:05:56;;;;;;;10.30;7.40;;;;;;;2.92;100.00;97381.75;5060720;28;20237;-82
2021/12/13 10:08:30;;;;;;;10.37;6.50;;;;;;;2.96;100.00;97375.97;5059144;28;20191;-81
2021/12/13 10:11:01;;;;;;;11.23;7.90;;;;;;;2.92;100.00;97371.94;5058264;28;20206;-80
2021/12/13 10:13:31;;;;;;;15.70;7.87;;;;;;;2.99;100.00;97366.78;5065165;28;20288;-80
2021/12/13 10:16:02;;;;;;;12.17;7.60;;;;;;;3.01;100.00;97373.66;5053451;28;20205;-81
2021/12/13 10:18:33;;;;;;;11.67;8.37;;;;;;;3.02;100.00;97367.31;5054508;28;20206;-81
2021/12/13 10:21:04;;;;;;;12.40;7.67;;;;;;;3.13;100.00;97371.56;5057284;28;20276;-81
2021/12/13 10:23:36;;;;;;;13.10;8.50;;;;;;;3.11;100.00;97360.19;5064880;28;20282;-81
2021/12/13 10:26:07;;;;;;;11.87;8.40;;;;;;;3.17;100.00;97353.38;5072342;28;20207;-81
2021/12/13 10:28:38;;;;;;;10.83;8.17;;;;;;;3.30;100.00;97351.13;5060211;28;20194;-81
2021/12/13 10:31:09;;;;;;;12.57;9.27;;;;;;;3.31;100.00;97352.78;5061028;28;20240;-80
2021/12/13 10:33:38;;;;;;;14.63;9.30;;;;;;;3.30;100.00;97335.09;5068270;28;20204;-81
2021/12/13 10:36:06;;;;;;;13.13;9.70;;;;;;;3.29;100.00;97334.28;5087934;28;20202;-80
2021/12/13 10:38:38;;;;;;;16.00;9.77;;;;;;;3.40;100.00;97338.50;5063397;28;20300;-82
2021/12/13 10:41:08;;;;;;;13.70;9.40;;;;;;;3.45;100.00;97344.16;5057730;28;20201;-81
2021/12/13 10:43:42;;;;;;;14.20;8.77;;;;;;;3.44;100.00;97339.81;5063386;28;20221;-82
2021/12/13 10:46:13;;;;;;;12.50;8.30;;;;;;;3.50;100.00;97336.50;5060835;28;20248;-82
2021/12/13 10:48:45;;;;;;;13.23;9.07;;;;;;;3.53;100.00;97330.84;5065716;28;20185;-82
2021/12/13 10:51:20;;;;;;;14.40;9.53;;;;;;;3.58;100.00;97331.19;5063939;28;20304;-82
2021/12/13 10:53:53;;;;;;;16.53;10.17;;;;;;;3.62;100.00;97337.03;5061237;28;20337;-81
2021/12/13 10:56:23;;;;;;;15.80;9.87;;;;;;;3.68;100.00;97337.22;5061563;28;20212;-82
2021/12/13 10:58:53;;;;;;;13.43;10.00;;;;;;;3.73;100.00;97329.56;5076227;28;20212;-82
2021/12/13 11:01:24;;;;;;;14.33;9.43;;;;;;;3.75;100.00;97340.91;5059653;28;20204;-82
2021/12/13 11:03:53;;;;;;;14.70;9.90;;;;;;;3.78;100.00;97335.25;5066542;28;20217;-82
2021/12/13 11:06:21;;;;;;;14.33;9.90;;;;;;;3.77;100.00;97333.56;5058315;28;20239;-82
2021/12/13 11:08:50;;;;;;;14.87;9.33;;;;;;;3.83;100.00;97333.94;5060312;28;20283;-82
2021/12/13 11:11:22;;;;;;;13.93;9.70;;;;;;;3.85;100.00;97330.06;5068510;28;20319;-81
2021/12/13 11:13:51;;;;;;;15.03;9.67;;;;;;;3.92;100.00;97330.25;5053940;28;20274;-82
2021/12/13 11:16:24;;;;;;;15.77;10.67;;;;;;;3.94;100.00;97339.78;5062865;28;20225;-82
2021/12/13 11:18:52;;;;;;;16.20;10.30;;;;;;;3.96;100.00;97331.59;5070484;28;20215;-82
2021/12/13 11:21:23;;;;;;;13.17;10.10;;;;;;;3.99;100.00;97332.13;5056484;28;20516;-81
2021/12/13 11:23:52;;;;;;;15.57;11.00;;;;;;;3.96;100.00;97328.94;5060608;28;20231;-81
2021/12/13 11:26:23;;;;;;;16.97;10.67;;;;;;;3.91;100.00;97324.09;5058683;28;20208;-82
2021/12/13 11:28:50;;;;;;;15.87;10.37;;;;;;;3.98;100.00;97334.94;5069203;28;20200;-82
2021/12/13 11:31:56;;;;;;;15.00;10.77;;;;;;;3.96;100.00;97329.75;5059002;28;20205;-82
2021/12/13 11:34:47;;;;;;;15.83;10.87;;;;;;;3.96;100.00;97332.44;5062107;28;20228;-82
2021/12/13 11:37:40;;;;;;;15.50;11.00;;;;;;;3.86;100.00;97322.91;5054029;28;20212;-81
2021/12/13 11:40:36;;;;;;;14.97;10.23;;;;;;;3.84;100.00;97317.72;5061215;28;20198;-82
2021/12/13 11:43:25;;;;;;;18.37;11.10;;;;;;;3.79;100.00;97323.56;5060118;28;20299;-81
2021/12/13 11:46:41;;;;;;;19.23;11.40;;;;;;;3.83;100.00;97324.06;5059759;28;20227;-81
2021/12/13 11:49:32;;;;;;;18.97;11.77;;;;;;;3.88;100.00;97318.22;4970703;28;20211;-82
2021/12/13 11:52:17;;;;;;;16.47;11.07;;;;;;;3.86;100.00;97315.72;5058881;28;20291;-81
2021/12/13 11:55:14;;;;;;;15.93;10.83;;;;;;;3.78;100.00;97311.19;5078908;28;20189;-81
2021/12/13 11:58:17;;;;;;;17.90;11.63;;;;;;;3.82;100.00;97314.38;5061011;28;20227;-81
2021/12/13 12:01:07;;;;;;;15.87;10.27;;;;;;;3.88;100.00;97304.88;5074601;28;20204;-81
2021/12/13 12:04:19;;;;;;;15.33;10.40;;;;;;;3.91;100.00;97301.88;5055305;28;20299;-81
2021/12/13 12:07:14;;;;;;;16.37;10.93;;;;;;;3.93;100.00;97298.03;5050287;28;20320;-82